Time;durP1;ratioP1;P1;durP2;ratioP2;P2;SDS_P1;SDS_P2;PMS_P1;PMS_P2;Temp;Humidity;BMP_temperature;BMP_pressure;BME280_temperature;BME280_humidity;BME280_pressure;Samples;Min_cycle;Max_cycle;Signal;HPM_P1;HPM_P2
2021/01/02 00:01:08;;;;;;;43.97;27.15;;;;;;;4.23;62.30;94955.53;4192127;28;20291;-82
2021/01/02 00:03:15;;;;;;;52.55;28.23;;;;;;;4.22;62.32;94953.91;4194285;28;20057;-81
2021/01/02 00:05:19;;;;;;;47.08;27.35;;;;;;;4.17;62.33;94953.41;4196135;28;20082;-81
2021/01/02 00:08:08;;;;;;;49.38;27.10;;;;;;;4.21;63.11;94965.19;4189068;28;20052;-79
2021/01/02 00:10:14;;;;;;;45.35;25.77;;;;;;;4.27;62.82;94964.75;4188462;28;20402;-80
2021/01/02 00:12:42;;;;;;;46.03;26.65;;;;;;;4.24;62.55;94965.00;4195582;28;20089;-81
2021/01/02 00:14:49;;;;;;;44.58;27.00;;;;;;;4.26;62.61;94969.13;4209083;28;20128;-80
2021/01/02 00:17:05;;;;;;;47.72;27.00;;;;;;;4.25;62.04;94970.03;4188826;28;20364;-81
2021/01/02 00:19:24;;;;;;;46.15;25.73;;;;;;;4.28;62.01;94977.63;4196584;28;20056;-81
2021/01/02 00:21:26;;;;;;;41.63;24.40;;;;;;;4.37;62.12;94976.09;4196066;28;20052;-80
2021/01/02 00:24:00;;;;;;;44.55;26.15;;;;;;;4.43;61.84;94988.63;4195756;28;20040;-81
2021/01/02 00:26:10;;;;;;;41.28;24.63;;;;;;;4.49;62.08;94985.53;4196689;28;20048;-81
2021/01/02 00:28:24;;;;;;;48.08;26.63;;;;;;;4.47;62.06;94992.63;4192228;28;20067;-82
2021/01/02 00:31:00;;;;;;;41.75;24.10;;;;;;;4.41;62.29;94982.72;4196396;28;20164;-81
2021/01/02 00:34:01;;;;;;;43.55;23.98;;;;;;;4.43;61.65;94986.03;4190200;28;20215;-80
2021/01/02 00:36:11;;;;;;;36.85;23.10;;;;;;;4.39;62.27;94991.53;4159702;28;20088;-80
2021/01/02 00:38:14;;;;;;;35.38;20.33;;;;;;;4.43;61.66;94995.56;4172100;28;20048;-81
2021/01/02 00:40:18;;;;;;;39.95;20.30;;;;;;;4.44;61.33;94997.22;4199981;28;20052;-83
2021/01/02 00:42:25;;;;;;;34.47;20.77;;;;;;;4.45;61.01;94989.34;4195764;28;20045;-79
2021/01/02 00:44:30;;;;;;;38.33;21.70;;;;;;;4.38;61.42;94988.13;4194592;28;20423;-78
2021/01/02 00:46:32;;;;;;;46.95;25.23;;;;;;;4.39;61.61;94986.34;4195014;28;20051;-81
2021/01/02 00:48:33;;;;;;;43.15;25.02;;;;;;;4.38;61.25;94987.28;4195061;28;20062;-81
2021/01/02 00:50:35;;;;;;;48.22;26.17;;;;;;;4.37;62.24;94983.06;4194223;28;20052;-81
2021/01/02 00:52:52;;;;;;;49.83;27.10;;;;;;;4.35;62.45;94988.34;4194051;28;20050;-80
2021/01/02 00:55:30;;;;;;;47.00;27.02;;;;;;;4.31;62.54;94992.94;4194941;28;20049;-81
2021/01/02 00:58:09;;;;;;;46.50;27.38;;;;;;;4.33;62.40;94987.66;4192885;28;20052;-81
2021/01/02 01:00:10;;;;;;;49.97;26.35;;;;;;;4.13;62.79;94985.69;4194348;28;20131;-82
2021/01/02 01:02:20;;;;;;;53.63;29.25;;;;;;;4.06;62.63;94987.91;4195669;28;20523;-84
2021/01/02 01:04:34;;;;;;;48.65;27.92;;;;;;;4.05;63.10;94986.25;4181785;28;20174;-81
2021/01/02 01:06:38;;;;;;;50.15;28.48;;;;;;;4.06;63.20;94980.94;4209112;28;20054;-80
2021/01/02 01:08:43;;;;;;;53.00;28.80;;;;;;;4.10;63.75;94992.75;4195378;28;20044;-79
2021/01/02 01:10:45;;;;;;;49.50;29.02;;;;;;;4.12;63.04;94990.03;4194565;28;20489;-80
2021/01/02 01:12:46;;;;;;;47.53;27.17;;;;;;;4.08;63.50;94991.22;4194308;28;20071;-80
2021/01/02 01:14:48;;;;;;;55.83;28.75;;;;;;;4.00;63.23;94994.38;4193919;28;20358;-82
2021/01/02 01:16:57;;;;;;;52.50;29.40;;;;;;;3.99;62.78;94995.31;4194773;28;20059;-81
2021/01/02 01:19:03;;;;;;;49.35;27.77;;;;;;;4.01;63.49;94990.84;4192786;28;20134;-80
2021/01/02 01:21:09;;;;;;;50.22;27.60;;;;;;;3.95;63.47;94996.47;4177136;28;20093;-80
2021/01/02 01:23:31;;;;;;;51.22;27.88;;;;;;;3.86;63.77;94994.53;4188318;28;20052;-79
2021/01/02 01:25:55;;;;;;;46.33;27.00;;;;;;;3.78;64.25;94995.09;4202976;28;20052;-80
2021/01/02 01:28:03;;;;;;;45.42;26.42;;;;;;;3.71;64.42;94995.66;4181764;28;20510;-80
2021/01/02 01:30:06;;;;;;;46.47;26.83;;;;;;;3.70;64.32;94994.84;4197708;28;20048;-80
2021/01/02 01:32:09;;;;;;;47.38;25.10;;;;;;;3.76;64.93;94994.38;4167447;28;20144;-80
2021/01/02 01:34:12;;;;;;;46.60;26.88;;;;;;;3.78;64.34;95002.03;4214775;28;20063;-79
2021/01/02 01:36:21;;;;;;;48.70;25.40;;;;;;;3.76;64.34;94996.13;4209210;28;20107;-81
2021/01/02 01:38:23;;;;;;;39.65;22.85;;;;;;;3.63;64.32;94991.00;4206622;28;20048;-81
2021/01/02 01:40:31;;;;;;;40.15;22.30;;;;;;;3.65;64.04;95002.91;4194612;28;20056;-80
2021/01/02 01:42:43;;;;;;;38.40;22.20;;;;;;;3.64;63.91;95003.84;4194095;28;20057;-80
2021/01/02 01:44:52;;;;;;;40.20;22.08;;;;;;;3.55;64.07;94996.75;4194301;28;20533;-79
2021/01/02 01:46:53;;;;;;;38.47;21.65;;;;;;;3.56;64.18;95000.97;4162439;28;20064;-80
2021/01/02 01:49:11;;;;;;;41.08;22.67;;;;;;;3.59;64.21;94994.75;4193653;28;20041;-81
2021/01/02 01:51:49;;;;;;;38.85;22.08;;;;;;;3.71;63.67;94996.47;4174365;28;20492;-79
2021/01/02 01:54:37;;;;;;;40.53;21.05;;;;;;;3.76;63.32;95003.91;4194709;28;20076;-79
2021/01/02 01:56:43;;;;;;;36.75;20.27;;;;;;;3.71;63.23;95004.25;4192789;28;20519;-80
2021/01/02 01:58:53;;;;;;;32.67;19.05;;;;;;;3.76;62.76;95002.13;4178606;28;20052;-79
2021/01/02 02:01:02;;;;;;;37.10;20.48;;;;;;;3.81;63.68;95010.44;4188024;28;20098;-79
2021/01/02 02:03:03;;;;;;;40.42;22.75;;;;;;;3.87;63.68;95011.72;4192550;28;20052;-78
2021/01/02 02:05:05;;;;;;;40.38;23.90;;;;;;;3.89;63.56;95005.53;4193644;28;20064;-80
2021/01/02 02:07:14;;;;;;;43.33;23.85;;;;;;;3.95;63.54;95012.00;4193693;28;20055;-79
2021/01/02 02:09:20;;;;;;;44.17;24.52;;;;;;;3.99;63.64;95010.84;4180809;28;20061;-79
2021/01/02 02:11:42;;;;;;;45.80;24.50;;;;;;;4.02;63.04;95007.22;4193100;28;20063;-77
2021/01/02 02:13:44;;;;;;;45.60;24.83;;;;;;;3.99;63.07;95008.25;4194138;28;20052;-79
2021/01/02 02:15:53;;;;;;;38.28;22.65;;;;;;;3.99;62.42;95010.03;4182415;28;20049;-79
2021/01/02 02:18:05;;;;;;;33.05;20.05;;;;;;;3.95;61.92;95004.22;4186990;28;20052;-80
2021/01/02 02:20:22;;;;;;;29.13;16.83;;;;;;;3.93;62.37;94997.50;4183526;28;20116;-81
2021/01/02 02:22:25;;;;;;;27.80;16.92;;;;;;;3.93;61.74;94995.75;4193247;28;20045;-82
2021/01/02 02:24:30;;;;;;;27.63;16.40;;;;;;;3.89;62.02;95007.25;4194536;28;20489;-80
2021/01/02 02:26:34;;;;;;;28.88;16.75;;;;;;;3.90;62.51;95006.34;4173672;28;20041;-80
2021/01/02 02:28:59;;;;;;;27.25;16.88;;;;;;;3.92;61.86;95001.88;4193325;28;20138;-83
2021/01/02 02:31:05;;;;;;;26.25;15.38;;;;;;;3.89;62.00;94996.91;4192550;28;20415;-80
2021/01/02 02:33:08;;;;;;;25.88;15.85;;;;;;;3.86;62.70;94995.38;4186124;28;20395;-81
2021/01/02 02:35:12;;;;;;;25.45;16.13;;;;;;;3.85;62.98;95000.66;4191927;28;20495;-79
2021/01/02 02:37:13;;;;;;;;;;;;;;;3.87;62.19;94999.63;4187685;28;20060;-81
2021/01/02 02:39:15;;;;;;;27.98;15.05;;;;;;;3.92;62.14;95001.88;4193027;28;19921;-82
2021/01/02 02:41:20;;;;;;;30.25;15.95;;;;;;;3.95;62.57;95001.63;4180591;28;20451;-80
2021/01/02 02:43:23;;;;;;;27.98;16.27;;;;;;;3.91;62.71;95005.38;4208296;28;20105;-80
2021/01/02 02:45:27;;;;;;;29.85;16.63;;;;;;;3.68;62.96;95000.13;4193582;28;20047;-79
2021/01/02 02:47:29;;;;;;;28.65;17.15;;;;;;;3.26;63.44;95002.19;4188481;28;20049;-80
2021/01/02 02:49:34;;;;;;;27.65;16.10;;;;;;;2.96;64.59;95006.91;4190425;28;20048;-77
2021/01/02 02:51:58;;;;;;;28.55;16.98;;;;;;;2.77;65.80;95002.97;4179288;28;20474;-79
2021/01/02 02:53:59;;;;;;;29.80;17.23;;;;;;;2.74;65.89;95004.97;4159747;28;20084;-79
2021/01/02 02:56:01;;;;;;;27.67;16.75;;;;;;;2.78;66.29;95002.06;4194985;28;20063;-81
2021/01/02 02:58:03;;;;;;;30.10;17.25;;;;;;;2.84;66.12;95006.00;4199680;28;20050;-81
2021/01/02 03:00:05;;;;;;;27.15;16.23;;;;;;;2.96;65.78;95002.56;4198360;28;20098;-79
2021/01/02 03:02:08;;;;;;;27.65;14.80;;;;;;;2.67;65.64;95002.78;4198409;28;20056;-79
2021/01/02 03:04:09;;;;;;;23.33;14.45;;;;;;;2.48;66.13;94998.97;4196175;28;20062;-80
2021/01/02 03:06:10;;;;;;;29.48;15.18;;;;;;;2.36;66.06;94998.00;4192744;28;20124;-79
2021/01/02 03:08:13;;;;;;;34.65;20.10;;;;;;;2.10;67.22;94999.75;4176972;28;20056;-81
2021/01/02 03:10:16;;;;;;;38.35;20.15;;;;;;;2.15;68.13;95005.41;4183807;28;20392;-79
2021/01/02 03:12:18;;;;;;;44.97;26.00;;;;;;;2.30;67.62;95019.91;4197332;28;20052;-83
2021/01/02 03:14:19;;;;;;;43.63;25.40;;;;;;;2.43;66.88;95005.28;4198905;28;20078;-83
2021/01/02 03:16:23;;;;;;;45.63;23.80;;;;;;;2.64;66.61;95003.00;4198952;28;20502;-81
2021/01/02 03:18:25;;;;;;;39.13;22.27;;;;;;;2.82;65.69;95008.69;4179515;28;20144;-78
2021/01/02 03:20:26;;;;;;;40.05;23.00;;;;;;;2.91;65.69;94998.66;4197708;28;20060;-81
2021/01/02 03:22:27;;;;;;;43.65;23.23;;;;;;;3.05;65.49;95001.09;4198187;28;20045;-80
2021/01/02 03:24:29;;;;;;;34.83;20.10;;;;;;;3.13;65.14;95005.75;4196548;28;20427;-81
2021/01/02 03:26:30;;;;;;;39.33;21.83;;;;;;;3.19;64.93;95013.09;4191416;28;20045;-80
2021/01/02 03:28:31;;;;;;;39.28;21.05;;;;;;;3.23;63.80;95007.59;4194206;28;20052;-80
2021/01/02 03:30:32;;;;;;;36.03;19.23;;;;;;;3.26;63.72;95007.38;4193500;28;20056;-80
2021/01/02 03:32:35;;;;;;;31.80;16.80;;;;;;;3.23;63.69;95010.19;4185141;28;20048;-81
2021/01/02 03:34:37;;;;;;;48.80;27.38;;;;;;;3.16;63.95;95011.56;4195079;28;20151;-79
2021/01/02 03:36:38;;;;;;;54.17;32.22;;;;;;;3.11;64.48;95015.41;4196437;28;20113;-79
2021/01/02 03:38:41;;;;;;;54.55;29.70;;;;;;;3.04;64.61;95013.22;4196694;28;20049;-81
2021/01/02 03:40:43;;;;;;;52.78;28.75;;;;;;;3.01;64.81;95012.59;4193826;28;20415;-69
2021/01/02 03:42:47;;;;;;;45.63;24.77;;;;;;;3.03;64.22;95023.66;4175113;28;20094;-69
2021/01/02 03:44:48;;;;;;;47.38;25.92;;;;;;;2.98;64.60;95021.41;4193747;28;20463;-69
2021/01/02 03:46:49;;;;;;;49.17;25.73;;;;;;;2.99;64.73;95024.81;4179654;28;20077;-70
2021/01/02 03:48:51;;;;;;;46.97;27.90;;;;;;;2.99;64.66;95022.22;4192556;28;20282;-69
2021/01/02 03:50:52;;;;;;;55.20;30.23;;;;;;;2.98;65.14;95028.34;4187729;28;20056;-70
2021/01/02 03:52:53;;;;;;;54.22;29.63;;;;;;;2.69;65.53;95031.16;4190266;28;20060;-68
2021/01/02 03:54:54;;;;;;;45.20;28.08;;;;;;;2.45;66.83;95031.00;4192687;28;20060;-69
2021/01/02 03:56:56;;;;;;;54.03;29.13;;;;;;;2.28;67.64;95032.16;4193975;28;20054;-70
2021/01/02 03:58:59;;;;;;;49.88;26.60;;;;;;;2.24;67.65;95035.84;4189282;28;20090;-68
2021/01/02 04:01:00;;;;;;;48.70;25.70;;;;;;;2.29;67.64;95033.78;4194404;28;20083;-69
2021/01/02 04:03:06;;;;;;;49.92;27.45;;;;;;;2.30;67.66;95032.03;4190407;28;20568;-69
2021/01/02 04:05:08;;;;;;;51.70;28.00;;;;;;;2.38;67.96;95034.94;4190137;28;20045;-69
2021/01/02 04:07:09;;;;;;;44.58;25.10;;;;;;;2.42;67.66;95039.81;4193873;28;20114;-71
2021/01/02 04:09:10;;;;;;;48.72;28.42;;;;;;;2.52;67.11;95036.59;4191627;28;20056;-69
2021/01/02 04:11:11;;;;;;;43.40;25.42;;;;;;;2.63;66.67;95031.56;4200944;28;20242;-70
2021/01/02 04:13:12;;;;;;;45.00;26.45;;;;;;;2.74;66.71;95039.44;4193383;28;20448;-71
2021/01/02 04:15:14;;;;;;;48.00;25.55;;;;;;;2.81;66.06;95035.47;4184043;28;20059;-70
2021/01/02 04:17:15;;;;;;;43.25;23.90;;;;;;;2.95;65.87;95031.97;4188378;28;20083;-69
2021/01/02 04:19:16;;;;;;;48.88;27.67;;;;;;;2.89;65.96;95027.22;4194202;28;20049;-69
2021/01/02 04:21:17;;;;;;;48.80;26.50;;;;;;;2.83;66.04;95030.22;4191865;28;20582;-69
2021/01/02 04:23:20;;;;;;;48.67;24.88;;;;;;;2.83;65.72;95027.63;4192221;28;20056;-70
2021/01/02 04:25:22;;;;;;;47.80;25.60;;;;;;;2.84;66.10;95035.28;4194022;28;20074;-70
2021/01/02 04:27:23;;;;;;;46.22;24.75;;;;;;;2.87;65.44;95035.06;4195175;28;20475;-80
2021/01/02 04:29:25;;;;;;;42.47;24.05;;;;;;;2.94;65.33;95035.47;4194236;28;20045;-82
2021/01/02 04:31:37;;;;;;;36.80;22.98;;;;;;;2.94;65.50;95039.84;4168555;28;20563;-80
2021/01/02 04:33:38;;;;;;;46.38;24.50;;;;;;;3.02;65.33;95043.56;4192145;28;20102;-80
2021/01/02 04:35:42;;;;;;;47.25;27.25;;;;;;;2.78;66.32;95045.22;4194825;28;20048;-80
2021/01/02 04:37:43;;;;;;;45.45;25.48;;;;;;;2.82;66.14;95036.34;4171272;28;20055;-80
2021/01/02 04:39:44;;;;;;;44.05;24.60;;;;;;;2.88;65.95;95046.25;4208569;28;20498;-80
2021/01/02 04:41:46;;;;;;;51.63;26.35;;;;;;;2.87;66.19;95055.78;4186174;28;20081;-79
2021/01/02 04:43:49;;;;;;;52.50;26.20;;;;;;;2.87;65.80;95054.94;4177125;28;20068;-81
2021/01/02 04:45:51;;;;;;;50.60;26.88;;;;;;;2.86;65.60;95046.38;4195215;28;20056;-79
2021/01/02 04:47:53;;;;;;;45.30;25.13;;;;;;;2.88;65.95;95051.41;4195698;28;20036;-81
2021/01/02 04:49:54;;;;;;;42.75;25.65;;;;;;;2.92;65.91;95052.06;4195051;28;20193;-82
2021/01/02 04:52:01;;;;;;;49.88;26.08;;;;;;;2.94;65.82;95056.19;4193231;28;20058;-78
2021/01/02 04:54:05;;;;;;;43.38;25.02;;;;;;;2.97;66.17;95062.91;4194758;28;20499;-81
2021/01/02 04:56:07;;;;;;;44.35;24.65;;;;;;;3.03;65.99;95067.66;4192857;28;20041;-80
2021/01/02 04:58:15;;;;;;;41.88;24.67;;;;;;;3.03;66.02;95065.09;4194235;28;20054;-80
2021/01/02 05:00:16;;;;;;;42.85;24.60;;;;;;;3.05;65.61;95065.81;4183987;28;20187;-69
2021/01/02 05:02:21;;;;;;;47.53;25.48;;;;;;;3.02;65.51;95074.63;4172616;28;20045;-70
2021/01/02 05:04:23;;;;;;;48.28;25.95;;;;;;;3.03;65.62;95071.13;4187313;28;20155;-68
2021/01/02 05:06:24;;;;;;;43.33;25.38;;;;;;;3.00;65.50;95070.47;4187283;28;20062;-70
2021/01/02 05:08:25;;;;;;;43.35;24.30;;;;;;;3.00;65.88;95075.66;4193601;28;20123;-69
2021/01/02 05:10:27;;;;;;;43.85;23.15;;;;;;;3.00;65.50;95080.84;4176004;28;20053;-69
2021/01/02 05:12:31;;;;;;;46.33;24.40;;;;;;;2.93;65.66;95079.59;4190219;28;20056;-69
2021/01/02 05:14:32;;;;;;;47.40;25.95;;;;;;;2.90;65.95;95085.78;4209237;28;20517;-71
2021/01/02 05:16:38;;;;;;;43.40;24.90;;;;;;;2.93;65.90;95087.38;4193026;28;20121;-70
2021/01/02 05:18:59;;;;;;;44.40;24.02;;;;;;;3.01;65.98;95083.31;4193183;28;20456;-69
2021/01/02 05:21:06;;;;;;;43.00;23.77;;;;;;;3.04;65.83;95092.63;4191918;28;20509;-69
2021/01/02 05:23:08;;;;;;;44.08;25.38;;;;;;;3.02;65.73;95091.91;4193117;28;20048;-68
2021/01/02 05:25:18;;;;;;;39.10;23.33;;;;;;;2.99;65.60;95097.28;4191445;28;20155;-69
2021/01/02 05:27:19;;;;;;;36.83;20.60;;;;;;;2.97;65.58;95091.38;4190701;28;20055;-68
2021/01/02 05:29:21;;;;;;;42.58;21.77;;;;;;;3.01;65.36;95092.81;4192669;28;20060;-71
2021/01/02 05:31:26;;;;;;;38.55;20.92;;;;;;;3.00;64.78;95094.59;4192117;28;20384;-69
2021/01/02 05:33:28;;;;;;;38.28;21.77;;;;;;;3.02;64.70;95100.50;4182430;28;20047;-80
2021/01/02 05:35:33;;;;;;;35.47;20.80;;;;;;;3.03;65.23;95099.59;4195639;28;20064;-80
2021/01/02 05:37:34;;;;;;;41.00;21.35;;;;;;;3.04;65.18;95103.81;4194057;28;20071;-80
2021/01/02 05:39:41;;;;;;;41.15;22.55;;;;;;;3.06;64.87;95101.13;4193131;28;20068;-83
2021/01/02 05:42:09;;;;;;;47.40;24.30;;;;;;;3.00;64.90;95104.13;4186682;28;20102;-80
2021/01/02 05:44:11;;;;;;;48.38;25.90;;;;;;;2.84;65.36;95106.94;4189694;28;20453;-79
2021/01/02 05:46:13;;;;;;;46.38;26.85;;;;;;;2.61;65.95;95105.84;4194989;28;20060;-81
2021/01/02 05:48:14;;;;;;;54.70;27.45;;;;;;;2.57;66.67;95106.97;4194675;28;20071;-83
2021/01/02 05:50:19;;;;;;;56.63;28.65;;;;;;;2.42;66.71;95112.22;4193577;28;20048;-82
2021/01/02 05:52:20;;;;;;;49.70;28.80;;;;;;;2.42;67.21;95114.78;4172985;28;20087;-79
2021/01/02 05:54:24;;;;;;;45.30;27.73;;;;;;;2.50;67.79;95121.25;4195126;28;20056;-80
2021/01/02 05:56:26;;;;;;;44.72;24.63;;;;;;;2.60;67.08;95120.53;4193885;28;20052;-80
2021/01/02 05:58:47;;;;;;;42.50;23.63;;;;;;;2.70;66.82;95120.75;4193654;28;20213;-83
2021/01/02 06:00:48;;;;;;;39.45;21.48;;;;;;;2.74;65.94;95121.38;4181281;28;20059;-83
2021/01/02 06:02:49;;;;;;;40.05;22.40;;;;;;;2.73;65.85;95122.31;4193936;28;20051;-81
2021/01/02 06:04:58;;;;;;;40.50;24.25;;;;;;;2.70;66.08;95125.94;4177074;28;20052;-78
2021/01/02 06:07:08;;;;;;;47.08;24.42;;;;;;;2.63;66.11;95124.69;4204916;28;20044;-84
2021/01/02 06:09:09;;;;;;;40.63;22.65;;;;;;;2.50;66.54;95129.00;4194664;28;20167;-83
2021/01/02 06:11:13;;;;;;;40.80;22.25;;;;;;;2.50;66.54;95122.06;4188446;28;20097;-81
2021/01/02 06:13:14;;;;;;;;;;;;;;;2.60;66.45;95130.91;4195687;28;20047;-79
2021/01/02 06:15:16;;;;;;;198.05;95.03;;;;;;;2.70;66.51;95131.09;4202755;28;19989;-79
2021/01/02 06:17:25;;;;;;;154.38;78.82;;;;;;;2.79;66.07;95129.66;4199443;28;20305;-69
2021/01/02 06:19:26;;;;;;;124.47;64.57;;;;;;;2.83;65.80;95136.31;4191513;28;20514;-70
2021/01/02 06:21:29;;;;;;;71.10;36.47;;;;;;;2.90;65.55;95132.38;4186958;28;20052;-69
2021/01/02 06:23:32;;;;;;;44.67;24.05;;;;;;;2.93;65.28;95139.13;4190236;28;20055;-69
2021/01/02 06:25:34;;;;;;;42.87;23.60;;;;;;;2.99;65.16;95141.28;4190677;28;20052;-69
2021/01/02 06:27:44;;;;;;;77.30;47.80;;;;;;;3.10;64.96;95141.41;4190248;28;20056;-69
2021/01/02 06:29:53;;;;;;;102.68;59.05;;;;;;;3.31;64.73;95140.88;4189952;28;20534;-70
2021/01/02 06:31:55;;;;;;;36.60;22.20;;;;;;;3.40;62.84;95141.09;4191250;28;20317;-70
2021/01/02 06:33:56;;;;;;;39.60;22.40;;;;;;;3.38;63.03;95142.16;4190347;28;20079;-73
2021/01/02 06:36:00;;;;;;;37.50;21.83;;;;;;;3.44;63.09;95149.47;4187820;28;20144;-70
2021/01/02 06:38:01;;;;;;;40.97;23.45;;;;;;;3.59;62.70;95143.25;4189360;28;20055;-69
2021/01/02 06:40:22;;;;;;;40.10;23.38;;;;;;;3.76;61.80;95143.84;4190838;28;20044;-68
2021/01/02 06:42:30;;;;;;;45.53;25.42;;;;;;;3.88;62.63;95143.00;4191021;28;20499;-75
2021/01/02 06:44:38;;;;;;;49.45;25.48;;;;;;;4.00;61.72;95146.47;4191670;28;20101;-73
2021/01/02 06:46:39;;;;;;;44.75;25.30;;;;;;;4.12;61.67;95144.78;4194640;28;20090;-85
2021/01/02 06:48:41;;;;;;;45.78;25.52;;;;;;;4.04;61.91;95146.19;4194551;28;20052;-82
2021/01/02 06:50:42;;;;;;;46.50;24.48;;;;;;;3.90;61.81;95144.53;4193623;28;20503;-80
2021/01/02 06:52:43;;;;;;;42.70;24.98;;;;;;;3.85;61.69;95150.97;4192662;28;20403;-81
2021/01/02 06:54:44;;;;;;;42.92;24.73;;;;;;;3.84;62.01;95142.38;4194340;28;20053;-80
2021/01/02 06:56:46;;;;;;;44.17;24.05;;;;;;;3.83;61.76;95145.91;4181525;28;20410;-81
2021/01/02 06:58:49;;;;;;;45.80;23.95;;;;;;;3.89;61.83;95147.22;4189356;28;20059;-69
2021/01/02 07:00:50;;;;;;;46.03;24.45;;;;;;;3.93;61.72;95145.25;4190621;28;20416;-70
2021/01/02 07:02:55;;;;;;;46.13;25.20;;;;;;;3.95;61.66;95148.56;4192068;28;20120;-70
2021/01/02 07:04:56;;;;;;;40.58;22.60;;;;;;;3.88;61.33;95156.78;4172617;28;20041;-69
2021/01/02 07:06:59;;;;;;;40.45;23.83;;;;;;;3.86;61.56;95168.19;4191022;28;20044;-71
2021/01/02 07:09:09;;;;;;;42.10;23.15;;;;;;;3.74;61.94;95163.84;4189909;28;20396;-71
2021/01/02 07:11:34;;;;;;;40.55;23.17;;;;;;;3.75;62.27;95168.94;4189691;28;20481;-68
2021/01/02 07:13:36;;;;;;;36.83;20.38;;;;;;;3.80;62.32;95160.84;4182977;28;20052;-69
2021/01/02 07:15:37;;;;;;;36.95;20.17;;;;;;;3.89;61.38;95157.59;4192057;28;20110;-82
2021/01/02 07:17:39;;;;;;;36.15;19.40;;;;;;;3.98;61.54;95161.31;4194153;28;20048;-82
2021/01/02 07:19:45;;;;;;;31.88;19.17;;;;;;;4.01;61.29;95166.28;4193190;28;20462;-83
2021/01/02 07:21:56;;;;;;;31.65;17.75;;;;;;;4.05;60.72;95165.97;4183948;28;20056;-82
2021/01/02 07:24:23;;;;;;;25.50;14.27;;;;;;;4.08;60.74;95175.28;4197617;28;20056;-81
2021/01/02 07:26:24;;;;;;;30.23;14.85;;;;;;;4.10;60.40;95176.84;4198188;28;20057;-81
2021/01/02 07:28:26;;;;;;;27.00;15.95;;;;;;;4.22;61.25;95171.75;4192782;28;20052;-84
2021/01/02 07:30:27;;;;;;;30.20;17.25;;;;;;;4.23;59.44;95165.59;4197354;28;20124;-82
2021/01/02 07:32:30;;;;;;;47.67;25.55;;;;;;;4.10;60.12;95168.22;4196129;28;20063;-81
2021/01/02 07:34:32;;;;;;;31.30;18.08;;;;;;;4.07;60.14;95171.06;4195574;28;20055;-81
2021/01/02 07:36:33;;;;;;;28.40;15.80;;;;;;;4.11;60.05;95172.50;4195213;28;20088;-83
2021/01/02 07:38:34;;;;;;;24.52;14.77;;;;;;;4.17;59.41;95169.44;4196957;28;20044;-80
2021/01/02 07:40:36;;;;;;;28.02;14.98;;;;;;;4.24;59.83;95175.06;4195877;28;20436;-83
2021/01/02 07:42:38;;;;;;;25.60;15.10;;;;;;;4.38;58.96;95174.06;4196519;28;20091;-81
2021/01/02 07:44:40;;;;;;;23.75;12.85;;;;;;;4.47;59.08;95169.06;4197936;28;20063;-80
2021/01/02 07:46:44;;;;;;;23.13;13.15;;;;;;;4.57;59.02;95164.00;4196572;28;20150;-80
2021/01/02 07:48:54;;;;;;;23.90;13.73;;;;;;;4.66;58.84;95167.72;4186982;28;20057;-82
2021/01/02 07:50:56;;;;;;;22.92;13.13;;;;;;;4.74;57.77;95167.97;4197278;28;20087;-81
2021/01/02 07:53:02;;;;;;;22.98;13.60;;;;;;;4.71;58.10;95166.44;4197334;28;20475;-83
2021/01/02 07:55:10;;;;;;;20.15;12.60;;;;;;;4.71;58.05;95169.03;4197737;28;20385;-83
2021/01/02 07:57:11;;;;;;;26.45;14.07;;;;;;;4.72;58.21;95170.69;4196598;28;20083;-84
2021/01/02 07:59:29;;;;;;;20.98;12.05;;;;;;;4.81;57.13;95161.38;4196648;28;20049;-82
2021/01/02 08:01:31;;;;;;;16.90;10.63;;;;;;;4.71;57.71;95176.81;4199088;28;20406;-84
2021/01/02 08:03:33;;;;;;;19.58;9.75;;;;;;;4.74;57.43;95170.56;4195982;28;20090;-81
2021/01/02 08:05:34;;;;;;;16.25;9.55;;;;;;;4.84;58.66;95171.56;4196888;28;20059;-81
2021/01/02 08:07:37;;;;;;;42.25;24.88;;;;;;;4.94;57.53;95166.50;4195329;28;20106;-84
2021/01/02 08:09:43;;;;;;;54.95;32.85;;;;;;;5.00;57.99;95166.06;4197124;28;20060;-83
2021/01/02 08:11:52;;;;;;;25.67;17.08;;;;;;;5.13;57.64;95171.19;4196307;28;20052;-81
2021/01/02 08:13:53;;;;;;;18.23;11.40;;;;;;;5.15;57.83;95171.88;4195968;28;20049;-83
2021/01/02 08:15:54;;;;;;;18.70;11.85;;;;;;;5.13;56.86;95176.38;4208218;28;20056;-82
2021/01/02 08:18:05;;;;;;;18.33;11.20;;;;;;;5.20;56.55;95176.72;4195426;28;20521;-82
2021/01/02 08:20:08;;;;;;;19.48;11.93;;;;;;;5.33;56.96;95173.13;4197056;28;20041;-83
2021/01/02 08:22:09;;;;;;;22.17;12.45;;;;;;;5.49;58.08;95166.75;4193739;28;20483;-83
2021/01/02 08:24:14;;;;;;;19.65;12.40;;;;;;;5.56;56.63;95162.75;4197793;28;20491;-81
2021/01/02 08:26:18;;;;;;;20.45;11.57;;;;;;;5.66;56.87;95171.50;4200783;28;20124;-80
2021/01/02 08:28:19;;;;;;;19.20;11.90;;;;;;;5.62;56.22;95170.06;4201929;28;20048;-83
2021/01/02 08:30:20;;;;;;;20.80;11.52;;;;;;;5.75;55.48;95168.19;4212776;28;20123;-81
2021/01/02 08:32:25;;;;;;;17.77;9.40;;;;;;;5.87;55.50;95160.38;4199060;28;20415;-81
2021/01/02 08:34:28;;;;;;;15.38;9.95;;;;;;;5.95;54.87;95163.25;4196903;28;20564;-82
2021/01/02 08:36:30;;;;;;;16.35;10.48;;;;;;;6.05;54.83;95159.00;4221105;28;20139;-80
2021/01/02 08:38:31;;;;;;;18.15;10.93;;;;;;;6.12;56.12;95149.75;4217395;28;20052;-80
2021/01/02 08:40:47;;;;;;;24.00;10.45;;;;;;;6.17;55.69;95148.56;4196910;28;20132;-82
2021/01/02 08:42:49;;;;;;;16.52;9.70;;;;;;;6.26;55.09;95143.47;4183972;28;20090;-81
2021/01/02 08:44:50;;;;;;;17.10;10.05;;;;;;;6.38;54.34;95153.84;4190845;28;20127;-82
2021/01/02 08:46:51;;;;;;;17.00;9.80;;;;;;;6.44;54.24;95154.19;4189731;28;20044;-81
2021/01/02 08:48:52;;;;;;;16.95;9.00;;;;;;;6.55;53.85;95151.53;4213526;28;20052;-84
2021/01/02 08:50:54;;;;;;;15.07;9.60;;;;;;;6.69;53.87;95146.97;4195716;28;20052;-82
2021/01/02 08:52:55;;;;;;;12.63;8.73;;;;;;;6.78;53.48;95146.25;4181612;28;20048;-82
2021/01/02 08:55:16;;;;;;;14.68;8.38;;;;;;;6.84;53.97;95142.31;4197117;28;20056;-87
2021/01/02 08:57:30;;;;;;;15.93;8.77;;;;;;;6.92;54.13;95145.13;4193730;28;20052;-83
2021/01/02 08:59:31;;;;;;;16.65;9.15;;;;;;;6.98;53.25;95137.63;4178776;28;20478;-85
2021/01/02 09:01:32;;;;;;;17.58;10.23;;;;;;;7.15;53.09;95138.84;4188459;28;20052;-81
2021/01/02 09:03:33;;;;;;;20.23;10.45;;;;;;;6.86;53.57;95140.41;4195006;28;20080;-82
2021/01/02 09:05:39;;;;;;;19.52;9.88;;;;;;;6.56;53.62;95142.78;4194626;28;20083;-83
2021/01/02 09:07:55;;;;;;;16.88;10.32;;;;;;;6.02;54.58;95146.19;4192623;28;20138;-83
2021/01/02 09:10:15;;;;;;;17.52;10.85;;;;;;;6.06;55.66;95139.81;4191027;28;20044;-82
2021/01/02 09:12:18;;;;;;;21.42;10.90;;;;;;;6.12;55.80;95144.53;4198300;28;20135;-83
2021/01/02 09:14:20;;;;;;;17.38;10.93;;;;;;;6.05;54.52;95145.16;4196371;28;20102;-81
2021/01/02 09:16:21;;;;;;;18.88;11.57;;;;;;;6.00;54.97;95140.31;4199391;28;20079;-85
2021/01/02 09:18:25;;;;;;;20.67;11.90;;;;;;;6.11;54.99;95142.91;4200964;28;20040;-81
2021/01/02 09:20:28;;;;;;;43.22;26.15;;;;;;;6.22;55.43;95133.44;4199936;28;20087;-82
2021/01/02 09:22:29;;;;;;;19.83;13.68;;;;;;;6.34;54.93;95137.63;4213746;28;20109;-84
2021/01/02 09:24:31;;;;;;;16.73;11.00;;;;;;;6.33;54.29;95141.19;4197983;28;20491;-82
2021/01/02 09:26:35;;;;;;;16.50;10.00;;;;;;;6.06;54.63;95139.81;4197158;28;20108;-83
2021/01/02 09:28:43;;;;;;;19.52;9.95;;;;;;;6.07;55.13;95140.66;4195854;28;20087;-83
2021/01/02 09:30:46;;;;;;;18.52;10.20;;;;;;;6.13;54.74;95132.34;4195719;28;20511;-84
2021/01/02 09:32:47;;;;;;;18.58;10.40;;;;;;;5.98;54.61;95138.78;4197771;28;20051;-82
2021/01/02 09:34:48;;;;;;;17.55;9.75;;;;;;;5.89;54.80;95135.94;4179080;28;20464;-83
2021/01/02 09:36:50;;;;;;;18.67;10.80;;;;;;;5.90;54.80;95134.16;4195797;28;22011;-82
2021/01/02 09:38:51;;;;;;;17.17;10.00;;;;;;;6.02;54.36;95128.00;4205700;28;20237;-80
2021/01/02 09:40:53;;;;;;;15.43;10.05;;;;;;;6.45;53.65;95124.59;4191394;28;20111;-83
2021/01/02 09:42:54;;;;;;;16.77;10.02;;;;;;;6.85;52.75;95123.97;4202505;28;20070;-84
2021/01/02 09:44:56;;;;;;;17.08;11.18;;;;;;;7.15;52.68;95117.19;4203981;28;20067;-82
2021/01/02 09:46:57;;;;;;;17.00;10.68;;;;;;;7.10;51.83;95117.56;4200806;28;20051;-81